createdAt,value
2022-10-23T00:01:38.366Z,96580.97
2022-10-23T00:04:12.693Z,96585.06
2022-10-23T00:06:39.875Z,96575.00
2022-10-23T00:09:09.042Z,96569.91
2022-10-23T00:11:36.295Z,96567.56
2022-10-23T00:14:05.714Z,96568.56
2022-10-23T00:16:32.133Z,96564.09
2022-10-23T00:18:58.704Z,96564.25
2022-10-23T00:21:25.848Z,96561.63
2022-10-23T00:23:52.947Z,96564.41
2022-10-23T00:26:20.076Z,96565.91
2022-10-23T00:28:49.700Z,96568.91
2022-10-23T00:31:16.426Z,96567.25
2022-10-23T00:33:43.530Z,96574.69
2022-10-23T00:36:12.726Z,96571.19
2022-10-23T00:38:40.318Z,96572.84
2022-10-23T00:41:09.772Z,96564.59
2022-10-23T00:44:15.205Z,96567.56
2022-10-23T00:46:41.641Z,96563.44
2022-10-23T00:49:09.816Z,96569.06
2022-10-23T00:51:40.988Z,96564.25
2022-10-23T00:56:56.152Z,96567.72
2022-10-23T00:59:23.056Z,96566.59
2022-10-23T01:01:49.515Z,96574.81
2022-10-23T01:04:16.048Z,96567.56
2022-10-23T01:07:01.770Z,96564.44
2022-10-23T01:09:44.455Z,96556.00
2022-10-23T01:12:36.996Z,96555.03
2022-10-23T01:15:11.050Z,96556.16
2022-10-23T01:17:45.329Z,96559.81
2022-10-23T01:20:30.193Z,96553.00
2022-10-23T01:23:30.615Z,96550.72
2022-10-23T01:26:15.153Z,96544.75
2022-10-23T01:28:51.895Z,96550.06
2022-10-23T01:31:24.594Z,96546.25
2022-10-23T01:33:58.153Z,96547.91
2022-10-23T01:36:29.117Z,96535.50
2022-10-23T01:41:39.266Z,96538.66
2022-10-23T01:44:11.698Z,96543.78
2022-10-23T01:46:39.570Z,96532.38
2022-10-23T01:49:09.866Z,96522.31
2022-10-23T01:51:39.139Z,96524.94
2022-10-23T01:54:09.878Z,96519.81
2022-10-23T01:56:39.300Z,96522.16
2022-10-23T01:59:10.375Z,96512.56
2022-10-23T02:01:40.015Z,96506.97
2022-10-23T02:04:09.415Z,96516.22
2022-10-23T02:06:36.069Z,96513.41
2022-10-23T02:09:02.511Z,96507.44
2022-10-23T02:11:31.184Z,96513.56
2022-10-23T02:14:09.176Z,96507.94
2022-10-23T02:16:51.258Z,96503.78
2022-10-23T02:19:43.463Z,96506.13
2022-10-23T02:22:19.061Z,96510.44
2022-10-23T02:24:54.647Z,96504.78
2022-10-23T02:27:31.809Z,96495.88
2022-10-23T02:30:07.143Z,96500.66
2022-10-23T02:32:35.044Z,96497.88
2022-10-23T02:35:01.707Z,96493.22
2022-10-23T02:37:28.084Z,96500.97
2022-10-23T02:39:54.980Z,96494.88
2022-10-23T02:42:39.064Z,96493.75
2022-10-23T02:45:12.086Z,96482.34
2022-10-23T02:47:55.393Z,96479.84
2022-10-23T02:50:24.621Z,96487.47
2022-10-23T02:53:02.381Z,96481.69
2022-10-23T02:55:53.120Z,96476.06
2022-10-23T02:58:34.693Z,96471.09
2022-10-23T03:01:08.341Z,96466.81
2022-10-23T03:03:59.191Z,96457.75
2022-10-23T03:06:25.970Z,96474.38
2022-10-23T03:08:54.679Z,96468.34
2022-10-23T03:11:21.077Z,96460.13
2022-10-23T03:13:48.091Z,96468.34
2022-10-23T03:16:14.545Z,96465.72
2022-10-23T03:18:40.904Z,96465.06
2022-10-23T03:21:07.824Z,96475.59
2022-10-23T03:23:34.210Z,96473.19
2022-10-23T03:26:00.728Z,96465.63
2022-10-23T03:28:27.075Z,96458.25
2022-10-23T03:30:53.563Z,96451.38
2022-10-23T03:33:19.904Z,96457.19
2022-10-23T03:38:20.823Z,96437.72
2022-10-23T03:40:47.173Z,96440.06
2022-10-23T03:43:14.010Z,96437.47
2022-10-23T03:45:40.398Z,96436.81
2022-10-23T03:48:07.511Z,96428.75
2022-10-23T03:50:35.149Z,96432.38
2022-10-23T03:53:01.724Z,96435.47
2022-10-23T03:55:28.721Z,96418.94
2022-10-23T03:57:55.271Z,96421.00
2022-10-23T04:00:21.898Z,96438.28
2022-10-23T04:02:48.518Z,96425.28
2022-10-23T04:05:15.282Z,96424.00
2022-10-23T04:07:41.622Z,96441.88
2022-10-23T04:10:08.394Z,96436.38
2022-10-23T04:12:35.056Z,96417.66
2022-10-23T04:15:01.380Z,96423.72
2022-10-23T04:19:58.974Z,96429.41
2022-10-23T04:22:28.311Z,96435.31
2022-10-23T04:24:55.330Z,96449.31
2022-10-23T04:27:21.775Z,96453.50
2022-10-23T04:29:49.323Z,96441.06
2022-10-23T04:32:16.003Z,96444.34
2022-10-23T04:34:42.390Z,96437.59
2022-10-23T04:37:08.724Z,96448.81
2022-10-23T04:39:35.204Z,96440.66
2022-10-23T04:42:01.527Z,96433.94
2022-10-23T04:44:28.043Z,96445.56
2022-10-23T04:46:54.654Z,96438.84
2022-10-23T04:49:21.129Z,96429.53
2022-10-23T04:51:47.598Z,96431.69
2022-10-23T04:54:13.921Z,96419.38
2022-10-23T04:56:40.295Z,96424.84
2022-10-23T04:59:06.921Z,96429.25
2022-10-23T05:01:33.369Z,96427.44
2022-10-23T05:03:59.986Z,96416.28
2022-10-23T05:06:26.527Z,96433.19
2022-10-23T05:08:52.850Z,96447.22
2022-10-23T05:11:19.213Z,96434.88
2022-10-23T05:13:45.523Z,96439.81
2022-10-23T05:16:28.342Z,96443.84
2022-10-23T05:18:54.829Z,96441.13
2022-10-23T05:21:28.072Z,96450.22
2022-10-23T05:23:54.861Z,96447.72
2022-10-23T05:26:22.514Z,96453.00
2022-10-23T05:28:49.267Z,96459.44
2022-10-23T05:31:17.926Z,96470.63
2022-10-23T05:33:44.587Z,96460.91
2022-10-23T05:36:12.683Z,96441.00
2022-10-23T05:38:39.182Z,96455.09
2022-10-23T05:41:05.780Z,96459.09
2022-10-23T05:43:32.109Z,96450.59
2022-10-23T05:45:58.794Z,96443.91
2022-10-23T05:48:34.349Z,96461.81
2022-10-23T05:51:09.870Z,96451.81
2022-10-23T05:53:38.855Z,96444.28
2022-10-23T05:56:09.210Z,96462.75
2022-10-23T05:58:35.604Z,96473.22
2022-10-23T06:01:10.653Z,96450.28
2022-10-23T06:03:38.598Z,96459.41
2022-10-23T06:06:06.152Z,96464.25
2022-10-23T06:08:33.405Z,96453.97
2022-10-23T06:11:06.688Z,96446.41
2022-10-23T06:13:33.047Z,96449.56
2022-10-23T06:15:59.371Z,96450.50
2022-10-23T06:18:25.745Z,96447.50
2022-10-23T06:20:52.086Z,96450.00
2022-10-23T06:23:18.402Z,96454.94
2022-10-23T06:25:51.525Z,96449.81
2022-10-23T06:28:20.530Z,96458.84
2022-10-23T06:30:47.234Z,96463.84
2022-10-23T06:33:13.570Z,96461.25
2022-10-23T06:35:40.022Z,96466.53
2022-10-23T06:38:06.341Z,96464.19
2022-10-23T06:40:32.662Z,96475.03
2022-10-23T06:42:58.985Z,96469.63
2022-10-23T06:45:25.291Z,96482.06
2022-10-23T06:47:52.443Z,96476.41
2022-10-23T06:50:18.939Z,96488.00
2022-10-23T06:52:47.608Z,96480.75
2022-10-23T06:55:14.807Z,96476.34
2022-10-23T06:57:41.737Z,96478.06
2022-10-23T07:00:09.105Z,96470.63
2022-10-23T07:02:35.698Z,96489.78
2022-10-23T07:05:02.148Z,96486.44
2022-10-23T07:07:31.671Z,96492.44
2022-10-23T07:09:58.358Z,96487.13
2022-10-23T07:12:24.785Z,96511.50
2022-10-23T07:14:51.155Z,96488.72
2022-10-23T07:17:17.485Z,96496.25
2022-10-23T07:19:43.794Z,96507.06
2022-10-23T07:22:13.314Z,96498.19
2022-10-23T07:24:42.080Z,96503.13
2022-10-23T07:27:08.678Z,96490.88
2022-10-23T07:29:35.014Z,96490.97
2022-10-23T07:32:01.715Z,96504.34
2022-10-23T07:34:28.237Z,96494.19
2022-10-23T07:36:56.209Z,96498.53
2022-10-23T07:39:23.067Z,96496.03
2022-10-23T07:41:49.728Z,96490.78
2022-10-23T07:44:16.097Z,96486.94
2022-10-23T07:46:42.395Z,96492.53
2022-10-23T07:49:11.271Z,96499.25
2022-10-23T07:51:37.687Z,96498.41
2022-10-23T07:54:04.076Z,96499.34
2022-10-23T07:56:31.508Z,96496.50
2022-10-23T07:58:58.052Z,96489.31
2022-10-23T08:01:34.727Z,96489.22
2022-10-23T08:04:01.565Z,96494.34
2022-10-23T08:06:28.527Z,96487.16
2022-10-23T08:08:55.228Z,96485.84
2022-10-23T08:11:30.905Z,96477.00
2022-10-23T08:13:58.463Z,96490.88
2022-10-23T08:16:25.673Z,96484.91
2022-10-23T08:18:52.095Z,96476.03
2022-10-23T08:21:18.833Z,96480.34
2022-10-23T08:23:45.344Z,96478.88
2022-10-23T08:26:11.967Z,96473.88
2022-10-23T08:28:38.332Z,96463.25
2022-10-23T08:31:10.778Z,96459.63
2022-10-23T08:33:38.046Z,96456.53
2022-10-23T08:36:04.865Z,96456.53
2022-10-23T08:38:31.582Z,96458.50
2022-10-23T08:40:57.908Z,96453.22
2022-10-23T08:43:39.263Z,96445.84
2022-10-23T08:46:10.819Z,96451.19
2022-10-23T08:48:57.267Z,96439.84
2022-10-23T08:51:37.740Z,96444.47
2022-10-23T08:54:11.961Z,96434.63
2022-10-23T08:56:42.293Z,96440.56
2022-10-23T08:59:32.740Z,96432.16
2022-10-23T09:02:11.642Z,96433.84
2022-10-23T09:04:38.143Z,96433.69
2022-10-23T09:07:20.181Z,96429.53
2022-10-23T09:10:05.826Z,96438.03
2022-10-23T09:12:32.587Z,96442.69
2022-10-23T09:15:17.393Z,96451.63
2022-10-23T09:17:45.036Z,96445.00
2022-10-23T09:20:18.607Z,96433.22
2022-10-23T09:22:46.562Z,96434.09
2022-10-23T09:25:23.885Z,96430.34
2022-10-23T09:27:56.100Z,96419.47
2022-10-23T09:30:38.236Z,96417.22
2022-10-23T09:33:27.324Z,96423.16
2022-10-23T09:36:21.075Z,96410.50
2022-10-23T09:38:50.533Z,96409.69
2022-10-23T09:41:43.179Z,96407.03
2022-10-23T09:44:20.276Z,96406.75
2022-10-23T09:46:53.670Z,96404.78
2022-10-23T09:49:26.842Z,96391.25
2022-10-23T09:52:22.841Z,96395.19
2022-10-23T09:54:51.838Z,96395.03
2022-10-23T09:57:24.432Z,96395.84
2022-10-23T09:59:54.323Z,96382.50
2022-10-23T10:02:28.213Z,96376.56
2022-10-23T10:04:54.582Z,96378.34
2022-10-23T10:07:33.374Z,96377.34
2022-10-23T10:10:02.335Z,96370.56
2022-10-23T10:12:46.706Z,96386.91
2022-10-23T10:15:37.540Z,96388.25
2022-10-23T10:18:17.756Z,96371.56
2022-10-23T10:21:05.378Z,96361.38
2022-10-23T10:23:41.476Z,96385.00
2022-10-23T10:26:16.985Z,96383.50
2022-10-23T10:29:02.452Z,96376.56
2022-10-23T10:31:49.439Z,96381.97
2022-10-23T10:34:31.787Z,96373.63
2022-10-23T10:37:16.020Z,96372.81
2022-10-23T10:39:54.521Z,96383.28
2022-10-23T10:42:50.429Z,96372.72
2022-10-23T10:45:26.561Z,96386.47
2022-10-23T10:48:01.928Z,96385.94
2022-10-23T10:50:44.597Z,96374.22
2022-10-23T10:53:29.805Z,96388.84
2022-10-23T10:55:59.109Z,96374.59
2022-10-23T10:58:56.533Z,96364.28
2022-10-23T11:01:29.153Z,96368.34
2022-10-23T11:04:06.834Z,96371.75
2022-10-23T11:06:36.514Z,96365.41
2022-10-23T11:09:20.134Z,96357.53
2022-10-23T11:11:48.599Z,96355.22
2022-10-23T11:14:21.433Z,96352.69
2022-10-23T11:16:57.691Z,96356.84
2022-10-23T11:19:52.225Z,96355.69
2022-10-23T11:22:27.588Z,96358.34
2022-10-23T11:25:13.807Z,96350.13
2022-10-23T11:27:56.542Z,96354.09
2022-10-23T11:30:44.353Z,96350.56
2022-10-23T11:33:35.741Z,96346.06
2022-10-23T11:36:20.049Z,96348.72
2022-10-23T11:38:49.799Z,96341.22
2022-10-23T11:41:34.799Z,96330.19
2022-10-23T11:44:04.013Z,96340.13
2022-10-23T11:46:38.638Z,96323.16
2022-10-23T11:49:19.513Z,96320.81
2022-10-23T11:51:46.075Z,96316.78
2022-10-23T11:54:15.214Z,96311.50
2022-10-23T11:57:10.741Z,96316.91
2022-10-23T11:59:49.633Z,96299.19
2022-10-23T12:02:37.929Z,96299.25
2022-10-23T12:05:08.582Z,96293.25
2022-10-23T12:07:38.300Z,96289.25
2022-10-23T12:10:06.263Z,96295.53
2022-10-23T12:12:35.492Z,96307.41
2022-10-23T12:15:11.005Z,96307.53
2022-10-23T12:17:43.246Z,96309.44
2022-10-23T12:20:12.847Z,96298.81
2022-10-23T12:22:42.084Z,96306.41
2022-10-23T12:25:19.605Z,96300.00
2022-10-23T12:27:53.203Z,96284.16
2022-10-23T12:30:30.364Z,96290.81
2022-10-23T12:33:25.909Z,96277.84
2022-10-23T12:36:24.577Z,96264.03
2022-10-23T12:38:50.985Z,96269.78
2022-10-23T12:41:29.525Z,96263.38
2022-10-23T12:43:58.968Z,96254.03
2022-10-23T12:46:39.368Z,96263.44
2022-10-23T12:49:15.012Z,96266.91
2022-10-23T12:51:41.472Z,96252.00
2022-10-23T12:54:46.470Z,96250.00
2022-10-23T12:57:21.136Z,96242.41
2022-10-23T12:59:48.156Z,96220.78
2022-10-23T13:02:23.831Z,96239.41
2022-10-23T13:04:53.070Z,96227.50
2022-10-23T13:07:24.497Z,96231.91
2022-10-23T13:09:51.834Z,96218.81
2022-10-23T13:12:30.685Z,96231.16
2022-10-23T13:15:03.455Z,96217.91
2022-10-23T13:17:41.591Z,96221.81
2022-10-23T13:20:21.132Z,96217.91
2022-10-23T13:22:50.853Z,96211.25
2022-10-23T13:25:32.673Z,96209.66
2022-10-23T13:28:08.245Z,96227.44
2022-10-23T13:30:38.369Z,96224.34
2022-10-23T13:33:30.930Z,96212.84
2022-10-23T13:36:03.237Z,96241.28
2022-10-23T13:38:31.882Z,96236.84
2022-10-23T13:41:00.287Z,96231.28
2022-10-23T13:43:28.817Z,96232.03
2022-10-23T13:45:55.191Z,96252.63
2022-10-23T13:48:21.692Z,96248.72
2022-10-23T13:50:48.067Z,96251.34
2022-10-23T13:53:15.060Z,96234.44
2022-10-23T13:55:44.560Z,96231.78
2022-10-23T13:58:11.214Z,96242.41
2022-10-23T14:00:38.813Z,96223.91
2022-10-23T14:03:05.206Z,96179.28
2022-10-23T14:05:32.189Z,96204.75
2022-10-23T14:07:58.511Z,96197.94
2022-10-23T14:10:27.014Z,96206.91
2022-10-23T14:12:54.924Z,96198.31
2022-10-23T14:15:22.107Z,96160.03
2022-10-23T14:17:48.439Z,96187.06
2022-10-23T14:20:17.279Z,96214.03
2022-10-23T14:22:45.164Z,96195.06
2022-10-23T14:25:11.862Z,96191.75
2022-10-23T14:27:38.181Z,96210.00
2022-10-23T14:30:05.400Z,96182.41
2022-10-23T14:32:31.787Z,96188.19
2022-10-23T14:34:58.157Z,96178.22
2022-10-23T14:37:24.508Z,96185.16
2022-10-23T14:39:50.821Z,96183.78
2022-10-23T14:42:17.424Z,96183.00
2022-10-23T14:44:43.921Z,96199.63
2022-10-23T14:47:10.259Z,96178.97
2022-10-23T14:49:39.956Z,96175.44
2022-10-23T14:52:06.603Z,96175.53
2022-10-23T14:54:35.031Z,96189.47
2022-10-23T14:57:01.712Z,96205.00
2022-10-23T14:59:28.144Z,96177.50
2022-10-23T15:04:26.087Z,96222.28
2022-10-23T15:06:53.152Z,96232.28
2022-10-23T15:09:20.350Z,96211.91
2022-10-23T15:11:47.210Z,96199.53
2022-10-23T15:14:13.753Z,96210.56
2022-10-23T15:16:43.016Z,96242.41
2022-10-23T15:19:15.110Z,96287.84
2022-10-23T15:21:44.951Z,96279.91
2022-10-23T15:24:11.315Z,96286.19
2022-10-23T15:26:38.410Z,96242.38
2022-10-23T15:29:05.318Z,96234.78
2022-10-23T15:31:37.957Z,96199.31
2022-10-23T15:34:05.249Z,96199.97
2022-10-23T15:36:31.669Z,96198.84
2022-10-23T15:38:57.981Z,96202.34
2022-10-23T15:41:30.003Z,96192.50
2022-10-23T15:43:57.578Z,96195.41
2022-10-23T15:46:23.920Z,96159.53
2022-10-23T15:48:50.228Z,96148.97
2022-10-23T15:51:16.758Z,96141.56
2022-10-23T15:53:43.117Z,96127.03
2022-10-23T15:56:09.547Z,96113.50
2022-10-23T15:58:35.990Z,96116.78
2022-10-23T16:01:06.262Z,96117.75
2022-10-23T16:03:37.160Z,96123.50
2022-10-23T16:06:08.655Z,96114.13
2022-10-23T16:08:37.156Z,96125.44
2022-10-23T16:11:11.670Z,96135.91
2022-10-23T16:13:38.012Z,96141.41
2022-10-23T16:16:04.747Z,96136.09
2022-10-23T16:18:31.284Z,96150.69
2022-10-23T16:20:57.628Z,96140.50
2022-10-23T16:23:23.973Z,96113.66
2022-10-23T16:25:51.042Z,96141.66
2022-10-23T16:28:17.399Z,96123.75
2022-10-23T16:30:43.998Z,96129.91
2022-10-23T16:33:10.417Z,96143.09
2022-10-23T16:35:37.175Z,96139.63
2022-10-23T16:38:03.579Z,96124.22
2022-10-23T16:40:30.419Z,96144.41
2022-10-23T16:42:57.985Z,96147.97
2022-10-23T16:45:24.315Z,96133.34
2022-10-23T16:47:50.687Z,96137.44
2022-10-23T16:50:17.292Z,96143.88
2022-10-23T16:52:44.023Z,96148.31
2022-10-23T16:55:10.487Z,96153.22
2022-10-23T16:57:36.848Z,96165.00
2022-10-23T17:00:04.442Z,96183.28
2022-10-23T17:02:30.935Z,96179.34
2022-10-23T17:04:57.483Z,96186.47
2022-10-23T17:07:24.304Z,96197.53
2022-10-23T17:09:50.813Z,96208.59
2022-10-23T17:12:17.304Z,96207.19
2022-10-23T17:14:43.833Z,96207.75
2022-10-23T17:17:43.163Z,96185.97
2022-10-23T17:20:10.757Z,96181.94
2022-10-23T17:22:58.526Z,96194.50
2022-10-23T17:25:25.988Z,96226.59
2022-10-23T17:27:52.320Z,96232.56
2022-10-23T17:30:18.981Z,96232.66
2022-10-23T17:33:03.709Z,96212.66
2022-10-23T17:35:30.061Z,96237.75
2022-10-23T17:37:57.030Z,96232.00
2022-10-23T17:40:25.171Z,96237.41
2022-10-23T17:42:51.830Z,96258.34
2022-10-23T17:45:18.151Z,96240.72
2022-10-23T17:47:44.589Z,96221.97
2022-10-23T17:50:12.372Z,96225.34
2022-10-23T17:52:39.144Z,96231.66
2022-10-23T17:55:06.499Z,96228.44
2022-10-23T17:57:32.812Z,96224.63
2022-10-23T17:59:59.935Z,96254.66
2022-10-23T18:02:26.727Z,96253.09
2022-10-23T18:04:53.269Z,96258.16
2022-10-23T18:07:19.637Z,96226.25
2022-10-23T18:09:45.987Z,96280.00
2022-10-23T18:12:12.357Z,96288.00
2022-10-23T18:14:38.690Z,96275.84
2022-10-23T18:17:05.030Z,96235.31
2022-10-23T18:19:31.392Z,96261.81
2022-10-23T18:21:57.964Z,96272.22
2022-10-23T18:24:26.220Z,96301.31
2022-10-23T18:26:52.597Z,96315.66
2022-10-23T18:29:19.069Z,96319.16
2022-10-23T18:31:48.227Z,96331.66
2022-10-23T18:34:21.316Z,96336.84
2022-10-23T18:36:49.123Z,96350.56
2022-10-23T18:39:17.555Z,96373.53
2022-10-23T18:41:48.204Z,96374.03
2022-10-23T18:44:19.665Z,96366.28
2022-10-23T18:46:49.478Z,96368.06
2022-10-23T18:49:17.137Z,96370.41
2022-10-23T18:51:43.593Z,96377.72
2022-10-23T18:54:16.164Z,96382.97
2022-10-23T18:56:42.714Z,96378.75
2022-10-23T18:59:16.866Z,96377.97
2022-10-23T19:01:43.716Z,96384.38
2022-10-23T19:04:12.742Z,96388.19
2022-10-23T19:06:39.496Z,96395.00
2022-10-23T19:09:10.657Z,96391.84
2022-10-23T19:11:37.755Z,96377.84
2022-10-23T19:14:05.738Z,96388.16
2022-10-23T19:16:51.401Z,96401.56
2022-10-23T19:19:21.437Z,96395.41
2022-10-23T19:21:51.978Z,96395.56
2022-10-23T19:24:25.724Z,96394.91
2022-10-23T19:26:52.381Z,96399.09
2022-10-23T19:29:21.667Z,96410.44
2022-10-23T19:31:51.296Z,96411.75
2022-10-23T19:34:24.662Z,96411.38
2022-10-23T19:36:53.166Z,96418.09
2022-10-23T19:39:19.880Z,96421.97
2022-10-23T19:41:46.696Z,96416.72
2022-10-23T19:44:14.453Z,96432.31
2022-10-23T19:46:40.899Z,96429.88
2022-10-23T19:49:11.442Z,96433.91
2022-10-23T19:51:38.366Z,96440.00
2022-10-23T19:54:05.770Z,96438.06
2022-10-23T19:56:32.143Z,96446.31
2022-10-23T19:58:58.554Z,96442.44
2022-10-23T20:01:28.039Z,96447.38
2022-10-23T20:03:57.878Z,96443.06
2022-10-23T20:06:28.010Z,96447.06
2022-10-23T20:08:57.284Z,96433.53
2022-10-23T20:11:28.126Z,96443.97
2022-10-23T20:13:55.718Z,96433.31
2022-10-23T20:16:30.243Z,96449.69
2022-10-23T20:18:57.828Z,96455.59
2022-10-23T20:21:24.870Z,96458.78
2022-10-23T20:23:52.980Z,96456.34
2022-10-23T20:26:23.810Z,96467.69
2022-10-23T20:28:54.365Z,96471.09
2022-10-23T20:31:22.938Z,96472.59
2022-10-23T20:33:49.754Z,96470.78
2022-10-23T20:36:28.847Z,96469.13
2022-10-23T20:38:56.143Z,96485.09
2022-10-23T20:41:24.855Z,96476.38
2022-10-23T20:43:51.328Z,96462.13
2022-10-23T20:46:17.756Z,96455.84
2022-10-23T20:48:44.956Z,96462.00
2022-10-23T20:51:14.882Z,96459.53
2022-10-23T20:53:41.817Z,96489.53
2022-10-23T20:56:15.687Z,96512.38
2022-10-23T20:58:42.698Z,96442.31
2022-10-23T21:01:11.656Z,96464.25
2022-10-23T21:03:38.890Z,96472.72
2022-10-23T21:06:07.490Z,96512.97
2022-10-23T21:08:34.314Z,96505.09
2022-10-23T21:11:00.998Z,96468.25
2022-10-23T21:13:28.081Z,96486.47
2022-10-23T21:15:55.079Z,96452.94
2022-10-23T21:18:27.385Z,96456.09
2022-10-23T21:21:00.221Z,96417.72
2022-10-23T21:23:28.677Z,96364.53
2022-10-23T21:26:07.302Z,96383.56
2022-10-23T21:28:34.695Z,96365.44
2022-10-23T21:31:05.904Z,96372.56
2022-10-23T21:33:32.711Z,96356.41
2022-10-23T21:36:12.782Z,96344.66
2022-10-23T21:38:40.156Z,96329.63
2022-10-23T21:41:08.384Z,96325.47
2022-10-23T21:43:35.080Z,96327.47
2022-10-23T21:46:05.801Z,96304.81
2022-10-23T21:48:32.368Z,96326.13
2022-10-23T21:51:02.147Z,96317.88
2022-10-23T21:53:29.560Z,96321.97
2022-10-23T21:56:00.873Z,96321.84
2022-10-23T21:58:27.241Z,96319.03
2022-10-23T22:00:53.584Z,96329.25
2022-10-23T22:03:20.124Z,96338.50
2022-10-23T22:05:46.880Z,96347.72
2022-10-23T22:08:13.191Z,96354.34
2022-10-23T22:10:39.513Z,96357.63
2022-10-23T22:13:05.858Z,96353.63
2022-10-23T22:15:32.189Z,96369.81
2022-10-23T22:17:59.899Z,96365.84
2022-10-23T22:20:26.317Z,96353.53
2022-10-23T22:22:52.744Z,96377.72
2022-10-23T22:25:19.331Z,96364.09
2022-10-23T22:27:46.010Z,96374.84
2022-10-23T22:30:12.813Z,96391.38
2022-10-23T22:32:39.178Z,96397.25
2022-10-23T22:35:06.028Z,96384.97
2022-10-23T22:37:32.349Z,96402.38
2022-10-23T22:39:59.757Z,96401.56
2022-10-23T22:42:26.078Z,96412.09
2022-10-23T22:44:52.611Z,96414.31
2022-10-23T22:47:19.041Z,96407.88
2022-10-23T22:49:45.582Z,96412.66
2022-10-23T22:52:11.933Z,96404.44
2022-10-23T22:54:38.292Z,96403.50
2022-10-23T22:57:04.613Z,96407.28
2022-10-23T22:59:31.131Z,96386.38
2022-10-23T23:01:57.556Z,96351.34
2022-10-23T23:04:39.610Z,96357.09
2022-10-23T23:07:11.451Z,96381.53
2022-10-23T23:09:40.221Z,96392.22
2022-10-23T23:12:07.962Z,96381.97
2022-10-23T23:14:34.591Z,96368.59
2022-10-23T23:17:01.124Z,96354.63
2022-10-23T23:19:28.379Z,96352.50
2022-10-23T23:21:56.373Z,96331.19
2022-10-23T23:24:22.711Z,96330.75
2022-10-23T23:26:49.231Z,96334.03
2022-10-23T23:29:15.645Z,96312.34
2022-10-23T23:31:42.045Z,96322.97
2022-10-23T23:34:08.418Z,96316.22
2022-10-23T23:36:35.166Z,96321.78
2022-10-23T23:39:01.780Z,96330.59
2022-10-23T23:41:29.704Z,96329.66
2022-10-23T23:43:58.022Z,96319.56
2022-10-23T23:46:25.582Z,96339.16
2022-10-23T23:48:52.097Z,96339.16
2022-10-23T23:51:21.655Z,96324.78
2022-10-23T23:53:48.888Z,96315.16
2022-10-23T23:56:15.701Z,96306.84
2022-10-23T23:58:42.104Z,96313.44
